Time;durP1;ratioP1;P1;durP2;ratioP2;P2;SDS_P1;SDS_P2;PMS_P1;PMS_P2;Temp;Humidity;BMP_temperature;BMP_pressure;BME280_temperature;BME280_humidity;BME280_pressure;Samples;Min_cycle;Max_cycle;Signal;HPM_P1;HPM_P2
2023/11/15 00:00:38;;;;;;;6.55;0.68;;;11.30;1.00;;;;;;5025893;28;20393;-69
2023/11/15 00:03:03;;;;;;;3.80;0.50;;;11.40;1.00;;;;;;5031902;28;20391;-69
2023/11/15 00:05:29;;;;;;;3.90;0.47;;;11.40;1.00;;;;;;5031586;28;20403;-69
2023/11/15 00:07:57;;;;;;;3.75;0.40;;;11.30;1.00;;;;;;5017418;28;20473;-70
2023/11/15 00:10:23;;;;;;;4.00;0.50;;;11.40;1.00;;;;;;5024859;28;20932;-70
2023/11/15 00:12:49;;;;;;;3.70;0.30;;;11.40;1.00;;;;;;5024435;28;20420;-70
2023/11/15 00:15:14;;;;;;;3.70;0.30;;;11.40;1.00;;;;;;5024312;28;20442;-70
2023/11/15 00:17:41;;;;;;;4.00;0.38;;;11.40;1.00;;;;;;5031465;28;20421;-70
2023/11/15 00:20:10;;;;;;;3.80;0.30;;;11.40;1.00;;;;;;5012553;28;20396;-70
2023/11/15 00:22:35;;;;;;;3.80;0.40;;;11.40;1.00;;;;;;5031967;28;20399;-69
2023/11/15 00:25:01;;;;;;;3.70;0.30;;;11.40;1.00;;;;;;5031480;28;20474;-69
2023/11/15 00:27:27;;;;;;;4.30;0.73;;;11.50;1.00;;;;;;5031728;28;20399;-69
2023/11/15 00:29:52;;;;;;;4.20;0.80;;;11.50;1.00;;;;;;5014975;28;20393;-70
2023/11/15 00:32:19;;;;;;;3.90;0.50;;;11.40;1.00;;;;;;5031313;28;20907;-70
2023/11/15 00:34:45;;;;;;;4.80;0.50;;;11.40;1.00;;;;;;5030946;28;20396;-70
2023/11/15 00:37:11;;;;;;;3.83;0.30;;;11.20;1.00;;;;;;5031836;28;20806;-70
2023/11/15 00:39:36;;;;;;;4.10;0.40;;;11.00;1.00;;;;;;5029987;28;20487;-70
2023/11/15 00:42:03;;;;;;;3.90;0.40;;;10.90;1.00;;;;;;5031443;28;20391;-69
2023/11/15 00:44:29;;;;;;;3.80;0.30;;;10.90;1.00;;;;;;5029913;28;20496;-69
2023/11/15 00:46:56;;;;;;;3.90;0.30;;;10.80;1.00;;;;;;5025195;28;20825;-69
2023/11/15 00:49:21;;;;;;;5.20;0.40;;;10.70;1.00;;;;;;5021314;28;20456;-69
2023/11/15 00:51:47;;;;;;;3.60;0.30;;;10.60;1.00;;;;;;5031065;28;20419;-70
2023/11/15 00:54:14;;;;;;;3.60;0.38;;;10.40;1.00;;;;;;5031578;28;20738;-69
2023/11/15 00:56:40;;;;;;;4.00;0.50;;;10.20;92.30;;;;;;5031123;28;20472;-70
2023/11/15 00:59:06;;;;;;;4.10;0.40;;;10.10;1.00;;;;;;5029653;28;20482;-70
2023/11/15 01:01:32;;;;;;;3.70;0.37;;;10.00;99.90;;;;;;5031032;28;20402;-70
2023/11/15 01:03:58;;;;;;;3.90;0.60;;;10.00;1.00;;;;;;5028860;28;20899;-69
2023/11/15 01:06:24;;;;;;;3.80;0.30;;;9.90;99.90;;;;;;5030258;28;20413;-69
2023/11/15 01:08:51;;;;;;;3.80;0.40;;;9.90;99.90;;;;;;5030599;28;20403;-69
2023/11/15 01:11:17;;;;;;;6.80;0.80;;;9.90;1.00;;;;;;5015715;28;20420;-69
2023/11/15 01:13:44;;;;;;;3.80;0.50;;;10.00;1.00;;;;;;5029777;28;20406;-69
2023/11/15 01:16:10;;;;;;;3.47;0.30;;;10.00;1.00;;;;;;5030045;28;20402;-69
2023/11/15 01:18:36;;;;;;;5.00;0.80;;;10.00;99.90;;;;;;5030226;28;20426;-70
2023/11/15 01:21:02;;;;;;;3.40;0.30;;;10.00;1.00;;;;;;5030062;28;20411;-69
2023/11/15 01:23:28;;;;;;;4.28;0.50;;;10.10;99.90;;;;;;5030558;28;20391;-69
2023/11/15 01:25:54;;;;;;;3.50;0.30;;;10.10;99.90;;;;;;5029710;28;20399;-69
2023/11/15 01:28:20;;;;;;;3.80;0.80;;;10.10;45.20;;;;;;5026021;28;20410;-70
2023/11/15 01:30:45;;;;;;;3.80;0.50;;;10.20;1.00;;;;;;5030709;28;20446;-69
2023/11/15 01:33:11;;;;;;;3.73;0.60;;;10.20;1.00;;;;;;5030410;28;20486;-69
2023/11/15 01:35:37;;;;;;;3.90;0.57;;;10.20;1.00;;;;;;5030153;28;20885;-69
2023/11/15 01:38:03;;;;;;;3.60;0.40;;;10.20;1.00;;;;;;5030180;28;20445;-69
2023/11/15 01:40:33;;;;;;;3.80;0.30;;;10.20;1.00;;;;;;5029980;28;20406;-69
2023/11/15 01:42:59;;;;;;;4.88;0.60;;;10.20;1.00;;;;;;5030203;28;20446;-69
2023/11/15 01:45:25;;;;;;;3.60;0.40;;;10.20;1.00;;;;;;5029464;28;20388;-69
2023/11/15 01:47:51;;;;;;;3.50;0.40;;;10.20;1.00;;;;;;5021222;28;20416;-69
2023/11/15 01:50:17;;;;;;;3.70;0.50;;;10.20;1.00;;;;;;5010471;28;20428;-69
2023/11/15 01:52:45;;;;;;;4.10;0.40;;;10.20;1.00;;;;;;5025860;28;20890;-69
2023/11/15 01:55:16;;;;;;;3.67;0.47;;;10.30;1.00;;;;;;5030072;28;20811;-69
2023/11/15 01:57:42;;;;;;;4.40;0.30;;;10.30;1.00;;;;;;5030555;28;20399;-70
2023/11/15 02:00:10;;;;;;;10.80;0.60;;;10.30;1.00;;;;;;5029676;28;20399;-69
2023/11/15 02:02:36;;;;;;;4.50;1.50;;;10.30;1.00;;;;;;5029884;28;20387;-69
2023/11/15 02:05:02;;;;;;;5.00;0.38;;;10.40;1.00;;;;;;5013542;28;20448;-69
2023/11/15 02:07:28;;;;;;;4.30;0.50;;;10.40;1.00;;;;;;5010346;28;20421;-69
2023/11/15 02:09:53;;;;;;;4.97;0.70;;;10.30;1.00;;;;;;5009902;28;20385;-69
2023/11/15 02:12:19;;;;;;;3.50;0.30;;;10.30;1.00;;;;;;5010186;28;20400;-69
2023/11/15 02:14:45;;;;;;;5.10;0.80;;;10.30;1.00;;;;;;5010709;28;20431;-69
2023/11/15 02:17:10;;;;;;;5.80;0.50;;;10.20;1.00;;;;;;5009716;28;20397;-69
2023/11/15 02:19:37;;;;;;;3.60;0.43;;;10.20;1.00;;;;;;5009976;28;20415;-69
2023/11/15 02:22:03;;;;;;;4.80;1.10;;;10.00;99.90;;;;;;5024709;28;20398;-69
2023/11/15 02:24:29;;;;;;;3.83;0.50;;;10.00;22.20;;;;;;5030008;28;20396;-69
2023/11/15 02:26:55;;;;;;;5.82;0.50;;;10.00;17.00;;;;;;5030109;28;20497;-69
2023/11/15 02:29:21;;;;;;;4.40;0.60;;;10.00;1.00;;;;;;5029541;28;20897;-69
2023/11/15 02:31:46;;;;;;;3.60;0.60;;;10.10;99.90;;;;;;5029610;28;20415;-69
2023/11/15 02:34:12;;;;;;;5.55;0.98;;;10.10;99.90;;;;;;5034233;28;20383;-69
2023/11/15 02:36:37;;;;;;;4.10;0.50;;;10.10;99.90;;;;;;5032653;28;20445;-69
2023/11/15 02:39:03;;;;;;;4.60;0.50;;;10.10;99.90;;;;;;5032498;28;20917;-69
2023/11/15 02:41:29;;;;;;;4.20;0.40;;;9.90;99.90;;;;;;5032443;28;20386;-69
2023/11/15 02:43:55;;;;;;;7.70;0.80;;;9.90;99.90;;;;;;5032105;28;20430;-69
2023/11/15 02:46:22;;;;;;;3.67;0.57;;;9.90;99.90;;;;;;5032285;28;20777;-69
2023/11/15 02:48:48;;;;;;;4.35;0.80;;;9.90;99.90;;;;;;5033302;28;20395;-69
2023/11/15 02:51:14;;;;;;;4.60;0.65;;;9.90;84.70;;;;;;5023583;28;20481;-70
2023/11/15 02:53:40;;;;;;;4.70;1.30;;;9.90;6.50;;;;;;5013801;28;20427;-69
2023/11/15 02:56:06;;;;;;;4.07;1.05;;;9.90;1.00;;;;;;5030887;28;20438;-69
2023/11/15 02:58:32;;;;;;;4.10;0.93;;;10.00;1.00;;;;;;5033681;28;20394;-69
2023/11/15 03:00:58;;;;;;;4.30;0.50;;;10.10;1.00;;;;;;5032717;28;20398;-69
2023/11/15 03:03:23;;;;;;;8.10;0.60;;;10.20;99.90;;;;;;5033552;28;20481;-69
2023/11/15 03:05:49;;;;;;;4.10;0.60;;;10.10;99.90;;;;;;5033223;28;20440;-69
2023/11/15 03:08:16;;;;;;;3.90;0.50;;;10.20;99.90;;;;;;5016875;28;20381;-69
2023/11/15 03:10:42;;;;;;;4.15;0.60;;;10.20;99.90;;;;;;5013807;28;20413;-69
2023/11/15 03:13:08;;;;;;;4.60;0.90;;;10.20;99.90;;;;;;5013311;28;20408;-69
2023/11/15 03:15:35;;;;;;;4.00;0.73;;;10.20;11.50;;;;;;5013163;28;20883;-69
2023/11/15 03:18:01;;;;;;;5.90;1.00;;;10.20;1.00;;;;;;5013175;28;20518;-69
2023/11/15 03:20:26;;;;;;;4.70;0.60;;;10.20;1.00;;;;;;5013091;28;20922;-69
2023/11/15 03:22:52;;;;;;;6.00;0.73;;;10.10;1.00;;;;;;5013092;28;20389;-69
2023/11/15 03:25:17;;;;;;;3.70;0.60;;;10.10;1.00;;;;;;5023461;28;20881;-69
2023/11/15 03:27:43;;;;;;;5.30;1.27;;;10.00;1.00;;;;;;5032929;28;20383;-69
2023/11/15 03:30:09;;;;;;;3.50;0.30;;;10.00;1.00;;;;;;5032193;28;20386;-69
2023/11/15 03:32:34;;;;;;;5.80;0.60;;;10.00;1.00;;;;;;5031244;28;20457;-69
2023/11/15 03:35:00;;;;;;;3.80;0.53;;;10.00;1.00;;;;;;5032213;28;20396;-69
2023/11/15 03:37:26;;;;;;;3.50;0.33;;;10.10;1.00;;;;;;5031975;28;20410;-69
2023/11/15 03:39:52;;;;;;;3.90;0.50;;;10.20;1.00;;;;;;5032130;28;20393;-69
2023/11/15 03:42:18;;;;;;;3.60;0.40;;;10.10;1.00;;;;;;5031863;28;20434;-69
2023/11/15 03:44:43;;;;;;;4.70;0.30;;;10.10;1.00;;;;;;5031725;28;20913;-69
2023/11/15 03:47:09;;;;;;;3.60;0.40;;;10.00;1.00;;;;;;5031766;28;20482;-70
2023/11/15 03:49:35;;;;;;;3.58;0.40;;;10.00;1.00;;;;;;5031694;28;20414;-69
2023/11/15 03:52:01;;;;;;;3.40;0.20;;;10.00;1.00;;;;;;5030031;28;20468;-69
2023/11/15 03:54:26;;;;;;;4.10;0.80;;;10.00;1.00;;;;;;5031565;28;20730;-69
2023/11/15 03:56:52;;;;;;;4.05;0.50;;;9.90;1.00;;;;;;5031534;28;20407;-69
2023/11/15 03:59:19;;;;;;;5.80;0.60;;;10.10;1.00;;;;;;5030519;28;20403;-69
2023/11/15 04:01:45;;;;;;;3.80;0.50;;;10.10;1.00;;;;;;5031732;28;20391;-69
2023/11/15 04:04:11;;;;;;;3.70;0.60;;;10.00;1.00;;;;;;5029345;28;20798;-69
2023/11/15 04:06:36;;;;;;;3.70;0.50;;;10.10;1.00;;;;;;5031719;28;20478;-69
2023/11/15 04:09:02;;;;;;;3.60;0.40;;;10.10;1.00;;;;;;5031676;28;20390;-69
2023/11/15 04:11:35;;;;;;;3.72;0.57;;;10.00;1.00;;;;;;5031349;28;20450;-69
2023/11/15 04:14:00;;;;;;;4.10;0.80;;;10.10;1.00;;;;;;5031197;28;20383;-69
2023/11/15 04:16:26;;;;;;;3.63;0.43;;;10.10;1.00;;;;;;5031672;28;20852;-69
2023/11/15 04:18:51;;;;;;;3.60;0.30;;;10.20;1.00;;;;;;5030932;28;20410;-69
2023/11/15 04:21:17;;;;;;;5.10;0.60;;;10.10;1.00;;;;;;5031271;28;20486;-69
2023/11/15 04:23:44;;;;;;;3.50;0.30;;;10.10;1.00;;;;;;5031738;28;20876;-69
2023/11/15 04:26:11;;;;;;;8.27;1.00;;;10.20;1.00;;;;;;5031278;28;20877;-69
2023/11/15 04:28:36;;;;;;;4.55;0.75;;;10.20;1.00;;;;;;5031754;28;20479;-69
2023/11/15 04:31:02;;;;;;;4.47;0.67;;;10.00;1.00;;;;;;5030511;28;20422;-69
2023/11/15 04:33:28;;;;;;;5.00;0.60;;;10.10;1.00;;;;;;5031705;28;20796;-70
2023/11/15 04:35:53;;;;;;;6.23;0.77;;;10.00;1.00;;;;;;5031902;28;20418;-69
2023/11/15 04:38:19;;;;;;;6.07;1.00;;;10.10;1.00;;;;;;5031879;28;20749;-69
2023/11/15 04:40:45;;;;;;;8.20;0.80;;;10.10;1.00;;;;;;5029918;28;20457;-69
2023/11/15 04:43:10;;;;;;;4.40;0.85;;;10.10;1.00;;;;;;5030991;28;20387;-69
2023/11/15 04:45:37;;;;;;;12.00;0.90;;;10.10;1.00;;;;;;5030646;28;20880;-69
2023/11/15 04:48:03;;;;;;;3.50;0.40;;;10.00;1.00;;;;;;5030741;28;20407;-69
2023/11/15 04:50:28;;;;;;;6.80;0.50;;;10.10;1.00;;;;;;5028218;28;20438;-69
2023/11/15 04:52:54;;;;;;;3.60;0.50;;;10.10;1.00;;;;;;5030262;28;20789;-69
2023/11/15 04:55:20;;;;;;;5.30;0.50;;;10.10;1.00;;;;;;5029456;28;20397;-69
2023/11/15 04:57:45;;;;;;;4.90;0.40;;;10.10;1.00;;;;;;5030055;28;20470;-69
2023/11/15 05:00:12;;;;;;;3.70;0.50;;;10.20;1.00;;;;;;5030703;28;20399;-69
2023/11/15 05:02:37;;;;;;;4.78;0.98;;;10.20;1.00;;;;;;5029442;28;20403;-70
2023/11/15 05:05:04;;;;;;;10.00;0.60;;;10.20;1.00;;;;;;5030988;28;20410;-70
2023/11/15 05:07:34;;;;;;;4.90;0.50;;;10.20;1.00;;;;;;5031080;28;20389;-70
2023/11/15 05:10:00;;;;;;;4.60;0.52;;;10.20;1.00;;;;;;5029763;28;20399;-69
2023/11/15 05:12:25;;;;;;;5.70;0.80;;;10.20;99.90;;;;;;5029166;28;20406;-70
2023/11/15 05:14:51;;;;;;;5.60;0.70;;;10.20;99.90;;;;;;5021716;28;20441;-69
2023/11/15 05:17:16;;;;;;;6.70;0.80;;;10.10;99.90;;;;;;5030233;28;20490;-69
2023/11/15 05:19:42;;;;;;;5.40;0.87;;;10.10;99.90;;;;;;5020452;28;20421;-69
2023/11/15 05:22:07;;;;;;;6.63;0.70;;;10.10;1.00;;;;;;5021664;28;20406;-69
2023/11/15 05:24:33;;;;;;;3.50;0.40;;;10.10;36.70;;;;;;5029913;28;20418;-69
2023/11/15 05:26:59;;;;;;;3.90;0.80;;;10.10;49.10;;;;;;5013698;28;20401;-69
2023/11/15 05:29:25;;;;;;;5.50;1.00;;;10.00;99.90;;;;;;5029707;28;20407;-69
2023/11/15 05:31:50;;;;;;;3.70;0.50;;;9.90;1.00;;;;;;5018439;28;20427;-70
2023/11/15 05:34:16;;;;;;;4.00;0.40;;;9.90;1.00;;;;;;5019726;28;20494;-70
2023/11/15 05:36:42;;;;;;;3.83;0.38;;;9.90;99.90;;;;;;5015800;28;20387;-69
2023/11/15 05:39:09;;;;;;;4.80;0.50;;;9.90;99.90;;;;;;5018931;28;20442;-69
2023/11/15 05:41:34;;;;;;;4.10;0.70;;;10.00;99.90;;;;;;5017578;28;20829;-69
2023/11/15 05:44:00;;;;;;;6.30;0.90;;;10.00;99.90;;;;;;5024740;28;20450;-69
2023/11/15 05:46:25;;;;;;;3.70;0.60;;;9.90;99.90;;;;;;5023437;28;20403;-69
2023/11/15 05:48:51;;;;;;;3.90;0.60;;;10.00;99.90;;;;;;5017277;28;20403;-69
2023/11/15 05:51:17;;;;;;;3.60;0.45;;;9.90;99.90;;;;;;5010223;28;20512;-69
2023/11/15 05:53:44;;;;;;;5.60;0.80;;;10.00;1.00;;;;;;5028664;28;20399;-68
2023/11/15 05:56:10;;;;;;;5.00;0.70;;;10.10;1.00;;;;;;5028271;28;20840;-68
2023/11/15 05:58:35;;;;;;;8.10;0.80;;;10.10;99.90;;;;;;5012749;28;20416;-69
2023/11/15 06:01:01;;;;;;;3.90;0.60;;;10.10;1.00;;;;;;5009657;28;20420;-69
2023/11/15 06:03:27;;;;;;;4.00;0.60;;;10.20;99.90;;;;;;5016023;28;20413;-69
2023/11/15 06:05:52;;;;;;;7.40;0.70;;;10.10;99.90;;;;;;5024478;28;20490;-69
2023/11/15 06:08:19;;;;;;;9.70;0.85;;;10.00;99.90;;;;;;5026868;28;20387;-68
2023/11/15 06:10:44;;;;;;;3.80;0.60;;;10.00;99.90;;;;;;5028637;28;20419;-68
2023/11/15 06:13:10;;;;;;;4.50;0.73;;;10.00;99.90;;;;;;5021888;28;20414;-68
2023/11/15 06:15:36;;;;;;;4.20;0.40;;;10.00;99.90;;;;;;5014457;28;20387;-68
2023/11/15 06:18:02;;;;;;;3.50;0.20;;;10.00;99.90;;;;;;5028944;28;20915;-68
2023/11/15 06:20:29;;;;;;;3.60;0.60;;;9.90;99.90;;;;;;5028721;28;20421;-69
2023/11/15 06:22:55;;;;;;;3.67;0.50;;;9.90;19.30;;;;;;5027050;28;20424;-69
2023/11/15 06:25:21;;;;;;;7.80;0.50;;;10.00;25.40;;;;;;5028860;28;20387;-69
2023/11/15 06:27:47;;;;;;;3.50;0.40;;;10.10;1.00;;;;;;5029312;28;20441;-69
2023/11/15 06:30:16;;;;;;;3.53;0.30;;;10.00;20.10;;;;;;5028699;28;20415;-69
2023/11/15 06:32:43;;;;;;;3.40;0.28;;;10.00;90.70;;;;;;5029780;28;20391;-69
2023/11/15 06:35:08;;;;;;;4.72;0.68;;;9.80;80.90;;;;;;5028715;28;20391;-69
2023/11/15 06:37:34;;;;;;;3.40;0.30;;;9.80;99.90;;;;;;5028400;28;20475;-69
2023/11/15 06:40:07;;;;;;;3.70;0.40;;;9.80;99.90;;;;;;5028128;28;20398;-69
2023/11/15 06:42:34;;;;;;;3.60;0.40;;;9.90;99.90;;;;;;5028113;28;20430;-69
2023/11/15 06:45:00;;;;;;;6.07;0.47;;;9.90;99.90;;;;;;5028316;28;20395;-69
2023/11/15 06:47:28;;;;;;;4.93;0.37;;;9.90;99.90;;;;;;5027178;28;20394;-69
2023/11/15 06:49:54;;;;;;;4.90;0.50;;;9.90;99.90;;;;;;5028828;28;20445;-69
2023/11/15 06:52:19;;;;;;;3.60;0.40;;;9.90;1.00;;;;;;5029663;28;20411;-68
2023/11/15 06:54:46;;;;;;;3.43;0.40;;;9.90;1.00;;;;;;5030021;28;20418;-69
2023/11/15 06:57:11;;;;;;;7.70;0.60;;;9.90;1.00;;;;;;5033104;28;20417;-69
2023/11/15 06:59:37;;;;;;;7.80;0.70;;;10.00;1.00;;;;;;5029076;28;20463;-69
2023/11/15 07:02:05;;;;;;;3.50;0.30;;;10.00;99.90;;;;;;5029711;28;20426;-68
2023/11/15 07:04:31;;;;;;;5.00;0.70;;;9.90;99.90;;;;;;5023573;28;20420;-68
2023/11/15 07:06:57;;;;;;;4.10;0.50;;;9.90;99.90;;;;;;5022100;28;20407;-69
2023/11/15 07:09:22;;;;;;;6.03;0.70;;;9.90;99.90;;;;;;5015143;28;20438;-68
2023/11/15 07:11:49;;;;;;;4.03;0.50;;;9.90;99.90;;;;;;5026187;28;20428;-68
2023/11/15 07:14:15;;;;;;;5.50;0.80;;;10.00;99.90;;;;;;5009935;28;20393;-68
2023/11/15 07:16:48;;;;;;;5.18;0.88;;;10.10;99.90;;;;;;5018237;28;20470;-69
2023/11/15 07:19:14;;;;;;;10.68;0.80;;;10.10;59.80;;;;;;5032001;28;20411;-69
2023/11/15 07:21:40;;;;;;;3.92;0.63;;;10.10;71.20;;;;;;5032607;28;20872;-69
2023/11/15 07:24:08;;;;;;;6.32;0.80;;;10.20;38.00;;;;;;5032966;28;21561;-69
2023/11/15 07:26:35;;;;;;;3.90;0.90;;;10.30;27.00;;;;;;5013168;28;20871;-69
2023/11/15 07:29:02;;;;;;;4.15;0.68;;;10.30;1.00;;;;;;5012823;28;20397;-69
2023/11/15 07:31:28;;;;;;;4.65;0.63;;;10.40;1.00;;;;;;5013436;28;20903;-69
2023/11/15 07:33:56;;;;;;;4.07;0.73;;;10.40;1.00;;;;;;5013220;28;20451;-69
2023/11/15 07:36:22;;;;;;;13.40;1.20;;;10.50;1.00;;;;;;5012623;28;20447;-69
2023/11/15 07:38:48;;;;;;;6.80;0.80;;;10.60;1.00;;;;;;5013212;28;20771;-69
2023/11/15 07:41:14;;;;;;;6.20;0.90;;;10.60;1.00;;;;;;5013433;28;20412;-70
2023/11/15 07:43:41;;;;;;;5.30;1.40;;;11.00;1.00;;;;;;5031995;28;20874;-69
2023/11/15 07:46:08;;;;;;;3.80;0.40;;;11.10;1.00;;;;;;5032526;28;20399;-69
2023/11/15 07:48:35;;;;;;;4.10;0.60;;;11.30;1.00;;;;;;5032497;28;20387;-69
2023/11/15 07:51:03;;;;;;;6.47;0.83;;;11.40;1.00;;;;;;5032315;28;20419;-69
2023/11/15 07:53:29;;;;;;;5.70;0.70;;;11.30;1.00;;;;;;5032293;28;20880;-69
2023/11/15 07:55:55;;;;;;;4.20;0.80;;;11.00;1.00;;;;;;5032177;28;20384;-69
2023/11/15 07:58:21;;;;;;;5.43;1.10;;;10.90;1.00;;;;;;5032308;28;20422;-69
2023/11/15 08:00:47;;;;;;;5.80;0.60;;;10.80;1.00;;;;;;5032381;28;20861;-69
2023/11/15 08:03:13;;;;;;;5.80;0.70;;;10.70;1.00;;;;;;5032853;28;20419;-69
2023/11/15 08:05:38;;;;;;;6.10;0.70;;;10.70;1.00;;;;;;5032314;28;20392;-69
2023/11/15 08:08:06;;;;;;;3.90;0.70;;;10.60;1.00;;;;;;5032275;28;20386;-69
2023/11/15 08:10:32;;;;;;;5.30;0.90;;;10.60;1.00;;;;;;5031834;28;20426;-69
2023/11/15 08:12:58;;;;;;;7.50;0.82;;;11.10;1.00;;;;;;5032150;28;20423;-69
2023/11/15 08:15:23;;;;;;;3.80;0.40;;;11.50;1.00;;;;;;5031745;28;20860;-69
2023/11/15 08:17:49;;;;;;;4.17;0.80;;;12.10;1.00;;;;;;5012164;28;20408;-71
2023/11/15 08:20:17;;;;;;;4.10;0.50;;;12.80;1.00;;;;;;5012177;28;20771;-71
2023/11/15 08:22:43;;;;;;;6.80;0.60;;;12.50;1.00;;;;;;5012366;28;20467;-71
2023/11/15 08:25:09;;;;;;;3.70;0.47;;;12.00;1.00;;;;;;5011895;28;20902;-72
2023/11/15 08:27:38;;;;;;;7.00;0.60;;;12.40;1.00;;;;;;5012133;28;20476;-71
2023/11/15 08:30:06;;;;;;;5.30;0.65;;;13.00;1.00;;;;;;5010790;28;20397;-71
2023/11/15 08:32:33;;;;;;;8.03;0.60;;;13.00;1.00;;;;;;5012532;28;20484;-71
2023/11/15 08:34:59;;;;;;;4.22;0.43;;;13.00;1.00;;;;;;5011492;28;20401;-72
2023/11/15 08:37:24;;;;;;;4.60;0.50;;;13.20;1.00;;;;;;5012271;28;20396;-71
2023/11/15 08:39:50;;;;;;;3.90;0.40;;;12.40;1.00;;;;;;5012467;28;20381;-69
2023/11/15 08:42:16;;;;;;;4.80;0.60;;;11.60;1.00;;;;;;5012093;28;20759;-69
2023/11/15 08:44:43;;;;;;;4.20;0.52;;;11.70;1.00;;;;;;5012425;28;20751;-69
2023/11/15 08:47:09;;;;;;;4.53;0.82;;;12.10;1.00;;;;;;5011879;28;20404;-69
2023/11/15 08:49:39;;;;;;;3.80;0.50;;;12.70;1.00;;;;;;5011467;28;20397;-69
2023/11/15 08:52:04;;;;;;;4.00;0.50;;;13.20;1.00;;;;;;5011206;28;20764;-69
2023/11/15 08:54:30;;;;;;;4.10;0.40;;;13.10;1.00;;;;;;5029715;28;20391;-69
2023/11/15 08:56:58;;;;;;;5.72;0.57;;;13.40;1.00;;;;;;5030445;28;21303;-69
2023/11/15 08:59:26;;;;;;;5.20;0.60;;;13.00;1.00;;;;;;5031199;28;20802;-69
2023/11/15 09:01:54;;;;;;;4.30;0.63;;;12.80;1.00;;;;;;5031147;28;20391;-71
2023/11/15 09:04:20;;;;;;;4.43;0.60;;;13.60;1.00;;;;;;5030695;28;20941;-71
2023/11/15 09:06:46;;;;;;;5.50;0.40;;;13.80;1.00;;;;;;5031393;28;20422;-71
2023/11/15 09:09:14;;;;;;;4.03;0.43;;;13.50;1.00;;;;;;5032130;28;20399;-71
2023/11/15 09:11:40;;;;;;;4.40;0.70;;;13.30;1.00;;;;;;5030797;28;20498;-71
2023/11/15 09:14:08;;;;;;;5.20;0.80;;;13.30;1.00;;;;;;5031076;28;20429;-71
2023/11/15 09:16:34;;;;;;;4.20;0.60;;;12.50;1.00;;;;;;5031077;28;20865;-71
2023/11/15 09:19:04;;;;;;;4.50;0.63;;;12.30;1.00;;;;;;5030344;28;20403;-71
2023/11/15 09:21:32;;;;;;;6.50;0.70;;;12.20;1.00;;;;;;5030421;28;20882;-71
2023/11/15 09:23:58;;;;;;;4.00;0.53;;;12.00;1.00;;;;;;5030745;28;20403;-71
2023/11/15 09:26:24;;;;;;;4.00;0.77;;;12.00;1.00;;;;;;5030863;28;20387;-71
2023/11/15 09:28:51;;;;;;;4.00;0.60;;;12.60;1.00;;;;;;5030413;28;20438;-70
2023/11/15 09:31:17;;;;;;;3.90;0.50;;;14.30;1.00;;;;;;5030490;28;20431;-69
2023/11/15 09:33:43;;;;;;;6.47;0.75;;;14.40;1.00;;;;;;5030931;28;20392;-69
2023/11/15 09:36:10;;;;;;;4.50;0.60;;;13.90;1.00;;;;;;5030262;28;20391;-70
2023/11/15 09:38:36;;;;;;;4.00;0.50;;;13.90;1.00;;;;;;5030754;28;20407;-71
2023/11/15 09:41:06;;;;;;;7.00;0.70;;;13.80;1.00;;;;;;5030276;28;20403;-71
2023/11/15 09:43:34;;;;;;;4.25;0.57;;;;;;;;;;5030308;28;20892;-71
2023/11/15 09:46:08;;;;;;;4.20;0.50;;;14.40;1.00;;;;;;5030315;28;20465;-71
2023/11/15 09:48:34;;;;;;;4.10;0.50;;;13.40;1.00;;;;;;5030591;28;20399;-71
2023/11/15 09:51:01;;;;;;;5.50;0.40;;;12.90;1.00;;;;;;5030054;28;20502;-71
2023/11/15 09:53:28;;;;;;;4.10;0.50;;;12.60;1.00;;;;;;5030370;28;20395;-71
2023/11/15 09:55:54;;;;;;;4.90;0.40;;;12.40;1.00;;;;;;5030392;28;20415;-69
2023/11/15 09:58:21;;;;;;;4.93;0.80;;;11.90;1.00;;;;;;5030312;28;20430;-69
2023/11/15 10:00:47;;;;;;;5.10;0.50;;;11.50;1.00;;;;;;5029697;28;20383;-70
2023/11/15 10:03:18;;;;;;;6.40;0.88;;;11.40;1.00;;;;;;5030394;28;20393;-70
2023/11/15 10:05:57;;;;;;;4.00;0.52;;;11.40;1.00;;;;;;5030641;28;20371;-70
2023/11/15 10:08:23;;;;;;;6.10;0.47;;;11.80;1.00;;;;;;5029863;28;20797;-70
2023/11/15 10:11:08;;;;;;;4.45;0.35;;;11.80;1.00;;;;;;5029607;28;20425;-70
2023/11/15 10:13:37;;;;;;;4.32;0.80;;;11.60;1.00;;;;;;5028732;28;20375;-70
2023/11/15 10:16:21;;;;;;;3.70;0.30;;;11.70;1.00;;;;;;5024321;28;20806;-70
2023/11/15 10:18:48;;;;;;;3.80;0.60;;;12.60;1.00;;;;;;5009758;28;20407;-70
2023/11/15 10:21:15;;;;;;;3.65;0.32;;;13.10;1.00;;;;;;5010761;28;20484;-71
2023/11/15 10:23:41;;;;;;;4.40;0.70;;;12.90;1.00;;;;;;5009848;28;20417;-70
2023/11/15 10:26:09;;;;;;;4.20;0.70;;;12.80;1.00;;;;;;5009928;28;20435;-70
2023/11/15 10:28:39;;;;;;;4.30;0.80;;;12.80;1.00;;;;;;5010365;28;20401;-70
2023/11/15 10:31:18;;;;;;;4.45;0.70;;;12.80;1.00;;;;;;5009957;28;20429;-70
2023/11/15 10:33:51;;;;;;;4.00;0.60;;;13.10;1.00;;;;;;5010711;28;20806;-70
2023/11/15 10:36:22;;;;;;;4.60;0.60;;;12.80;1.00;;;;;;5010068;28;20469;-71
2023/11/15 10:38:51;;;;;;;4.40;0.60;;;12.50;1.00;;;;;;5009861;28;20447;-70
2023/11/15 10:41:21;;;;;;;3.97;0.45;;;12.40;1.00;;;;;;5010318;28;20447;-70
2023/11/15 10:43:51;;;;;;;3.80;0.50;;;12.20;1.00;;;;;;5010018;28;20396;-70
2023/11/15 10:46:31;;;;;;;3.97;0.50;;;12.40;1.00;;;;;;5009603;28;20526;-70
2023/11/15 10:48:58;;;;;;;4.40;0.60;;;13.00;1.00;;;;;;5010150;28;20401;-70
2023/11/15 10:51:35;;;;;;;5.40;0.50;;;13.50;1.00;;;;;;5009422;28;20470;-71
2023/11/15 10:54:02;;;;;;;3.90;0.50;;;13.90;1.00;;;;;;5012343;28;20392;-70
2023/11/15 10:56:31;;;;;;;4.30;0.40;;;14.30;1.00;;;;;;5013560;28;20487;-70
2023/11/15 10:58:59;;;;;;;4.20;0.60;;;13.80;1.00;;;;;;5013456;28;20388;-70
2023/11/15 11:01:29;;;;;;;4.00;0.60;;;13.80;1.00;;;;;;5013579;28;20870;-70
2023/11/15 11:03:56;;;;;;;5.18;0.57;;;13.70;1.00;;;;;;5013222;28;20483;-71
2023/11/15 11:06:47;;;;;;;3.90;0.30;;;13.90;1.00;;;;;;5013448;28;20389;-71
2023/11/15 11:09:22;;;;;;;4.28;0.70;;;14.10;1.00;;;;;;5013900;28;20393;-70
2023/11/15 11:11:59;;;;;;;5.70;0.80;;;14.20;1.00;;;;;;5013221;28;20436;-70
2023/11/15 11:14:26;;;;;;;5.60;0.70;;;14.50;1.00;;;;;;5013315;28;20384;-70
2023/11/15 11:16:54;;;;;;;4.35;0.60;;;14.20;1.00;;;;;;5025285;28;20411;-71
2023/11/15 11:19:24;;;;;;;4.60;1.00;;;13.90;1.00;;;;;;5032636;28;20762;-70
2023/11/15 11:22:03;;;;;;;4.13;0.43;;;13.90;1.00;;;;;;5033185;28;20745;-70
2023/11/15 11:24:42;;;;;;;5.38;0.65;;;13.80;1.00;;;;;;5033300;28;20917;-70
2023/11/15 11:27:11;;;;;;;5.28;0.50;;;13.90;1.00;;;;;;5033194;28;20387;-70
2023/11/15 11:30:00;;;;;;;4.40;0.80;;;13.40;1.00;;;;;;5032586;28;20900;-70
2023/11/15 11:32:27;;;;;;;4.10;0.60;;;13.90;1.00;;;;;;5032428;28;20778;-70
2023/11/15 11:35:05;;;;;;;4.50;0.60;;;14.20;1.00;;;;;;5032667;28;20939;-71
2023/11/15 11:37:44;;;;;;;4.57;0.63;;;14.20;1.00;;;;;;5032470;28;20411;-70
2023/11/15 11:40:13;;;;;;;4.00;0.50;;;14.00;1.00;;;;;;5033028;28;20390;-71
2023/11/15 11:42:40;;;;;;;4.30;0.52;;;13.40;1.00;;;;;;5032576;28;20379;-71
2023/11/15 11:45:07;;;;;;;4.30;0.55;;;13.80;1.00;;;;;;5032611;28;20892;-71
2023/11/15 11:47:46;;;;;;;4.10;0.50;;;13.70;1.00;;;;;;5032430;28;20398;-71
2023/11/15 11:50:23;;;;;;;5.60;0.70;;;13.90;1.00;;;;;;5033145;28;20495;-71
2023/11/15 11:52:59;;;;;;;5.00;0.50;;;14.30;1.00;;;;;;5032531;28;20448;-71
2023/11/15 11:55:26;;;;;;;3.83;0.33;;;14.10;1.00;;;;;;5032447;28;20436;-71
2023/11/15 11:57:52;;;;;;;4.20;0.50;;;13.80;1.00;;;;;;5032073;28;20387;-71
2023/11/15 12:00:20;;;;;;;3.80;0.30;;;13.60;1.00;;;;;;5032417;28;20797;-70
2023/11/15 12:02:47;;;;;;;4.80;0.60;;;13.50;1.00;;;;;;5033303;28;20470;-71
2023/11/15 12:05:19;;;;;;;4.15;0.50;;;13.70;1.00;;;;;;5032313;28;20395;-71
2023/11/15 12:07:49;;;;;;;4.20;0.70;;;13.80;1.00;;;;;;5033016;28;20791;-71
2023/11/15 12:10:18;;;;;;;5.13;0.50;;;13.80;1.00;;;;;;5032403;28;20433;-71
2023/11/15 12:13:00;;;;;;;4.80;1.00;;;13.60;1.00;;;;;;5031344;28;20521;-70
2023/11/15 12:15:25;;;;;;;3.90;0.40;;;13.40;1.00;;;;;;5013141;28;20413;-70
2023/11/15 12:17:53;;;;;;;4.20;0.40;;;13.20;1.00;;;;;;5020161;28;20423;-71
2023/11/15 12:20:30;;;;;;;3.97;0.50;;;13.30;1.00;;;;;;5031605;28;20854;-70
2023/11/15 12:23:26;;;;;;;4.40;0.68;;;13.20;1.00;;;;;;5028375;28;20888;-70
2023/11/15 12:25:52;;;;;;;4.00;0.40;;;13.00;1.00;;;;;;5032895;28;20415;-70
2023/11/15 12:28:25;;;;;;;4.50;0.82;;;13.00;1.00;;;;;;5020320;28;20827;-70
2023/11/15 12:30:58;;;;;;;4.10;0.50;;;12.90;1.00;;;;;;5013091;28;20424;-71
2023/11/15 12:33:26;;;;;;;4.27;0.70;;;12.80;1.00;;;;;;5011960;28;20393;-71
2023/11/15 12:35:55;;;;;;;3.90;0.50;;;13.10;1.00;;;;;;5011799;28;20415;-71
2023/11/15 12:38:22;;;;;;;4.10;0.50;;;13.00;1.00;;;;;;5011922;28;20389;-71
2023/11/15 12:40:47;;;;;;;3.90;0.40;;;13.00;1.00;;;;;;5011363;28;20392;-71
2023/11/15 12:43:21;;;;;;;4.30;0.50;;;12.90;1.00;;;;;;5023415;28;20493;-71
2023/11/15 12:45:48;;;;;;;4.30;0.60;;;12.90;1.00;;;;;;5030990;28;20395;-67
2023/11/15 12:48:14;;;;;;;5.90;0.80;;;12.60;1.00;;;;;;5031460;28;20461;-71
2023/11/15 12:50:42;;;;;;;3.80;0.40;;;12.80;1.00;;;;;;5029311;28;20434;-71
2023/11/15 12:53:10;;;;;;;4.10;0.40;;;12.70;1.00;;;;;;5016295;28;20395;-71
2023/11/15 12:55:49;;;;;;;4.10;0.60;;;12.40;1.00;;;;;;5027456;28;20440;-69